createdAt,value
2023-01-15T00:02:12.956Z,99330.98
2023-01-15T00:05:40.240Z,99328.05
2023-01-15T00:09:07.803Z,99323.55
2023-01-15T00:12:34.949Z,99311.59
2023-01-15T00:16:07.165Z,99310.73
2023-01-15T00:19:34.225Z,99306.60
2023-01-15T00:23:01.411Z,99294.96
2023-01-15T00:26:54.134Z,99298.45
2023-01-15T00:30:21.527Z,99293.60
2023-01-15T00:33:48.557Z,99281.46
2023-01-15T00:37:17.184Z,99263.09
2023-01-15T00:40:44.268Z,99267.63
2023-01-15T00:44:11.429Z,99264.19
2023-01-15T00:47:38.489Z,99260.40
2023-01-15T00:51:05.800Z,99246.54
2023-01-15T00:54:33.348Z,99246.22
2023-01-15T00:58:00.365Z,99238.27
2023-01-15T01:01:27.542Z,99240.41
2023-01-15T01:04:54.741Z,99245.67
2023-01-15T01:08:21.799Z,99235.96
2023-01-15T01:11:50.292Z,99229.05
2023-01-15T01:15:17.339Z,99223.00
2023-01-15T01:18:44.404Z,99211.20
2023-01-15T01:22:12.033Z,99209.66
2023-01-15T01:25:39.244Z,99214.70
2023-01-15T01:29:06.794Z,99202.58
2023-01-15T01:32:33.827Z,99202.43
2023-01-15T01:36:02.124Z,99196.03
2023-01-15T01:39:29.340Z,99186.69
2023-01-15T01:42:56.458Z,99182.55
2023-01-15T01:46:24.338Z,99171.45
2023-01-15T01:49:54.755Z,99164.89
2023-01-15T01:53:23.869Z,99168.03
2023-01-15T01:56:52.473Z,99160.92
2023-01-15T02:00:20.490Z,99158.86
2023-01-15T02:03:47.814Z,99146.90
2023-01-15T02:07:14.905Z,99134.23
2023-01-15T02:10:42.748Z,99127.11
2023-01-15T02:14:16.643Z,99121.20
2023-01-15T02:17:50.541Z,99111.30
2023-01-15T02:21:25.682Z,99121.55
2023-01-15T02:25:06.074Z,99124.86
2023-01-15T02:28:36.340Z,99117.40
2023-01-15T02:32:12.416Z,99117.23
2023-01-15T02:35:45.628Z,99097.95
2023-01-15T02:39:16.676Z,99090.13
2023-01-15T02:42:45.759Z,99090.13
2023-01-15T02:46:15.536Z,99083.52
2023-01-15T02:49:45.534Z,99078.48
2023-01-15T02:53:19.020Z,99083.70
2023-01-15T02:56:50.275Z,99084.92
2023-01-15T03:00:20.720Z,99080.23
2023-01-15T03:03:56.746Z,99084.40
2023-01-15T03:07:29.182Z,99079.71
2023-01-15T03:11:06.071Z,99084.61
2023-01-15T03:14:37.510Z,99078.86
2023-01-15T03:18:09.664Z,99078.52
2023-01-15T03:21:46.033Z,99072.77
2023-01-15T03:25:22.015Z,99067.20
2023-01-15T03:28:52.064Z,99052.23
2023-01-15T03:32:20.844Z,99046.68
2023-01-15T03:35:52.599Z,99045.64
2023-01-15T03:39:27.907Z,99047.38
2023-01-15T03:43:21.733Z,99046.34
2023-01-15T03:47:10.389Z,99038.33
2023-01-15T03:50:49.165Z,99040.07
2023-01-15T03:54:24.040Z,99024.25
2023-01-15T03:57:58.512Z,99021.48
2023-01-15T04:01:33.484Z,99012.96
2023-01-15T04:05:01.863Z,99010.17
2023-01-15T04:08:33.690Z,99012.42
2023-01-15T04:12:03.029Z,99008.44
2023-01-15T04:15:34.961Z,99005.48
2023-01-15T04:19:03.930Z,99001.66
2023-01-15T04:22:36.065Z,98996.98
2023-01-15T04:26:02.976Z,99004.61
2023-01-15T04:29:30.195Z,99004.08
2023-01-15T04:32:58.256Z,98995.38
2023-01-15T04:36:25.245Z,98982.17
2023-01-15T04:39:52.400Z,98971.55
2023-01-15T04:43:37.780Z,98971.37
2023-01-15T04:47:05.424Z,98971.17
2023-01-15T04:50:32.508Z,98965.95
2023-01-15T04:54:01.717Z,98960.20
2023-01-15T04:57:28.701Z,98953.92
2023-01-15T05:00:55.936Z,98950.61
2023-01-15T05:04:23.329Z,98951.82
2023-01-15T05:07:50.494Z,98950.77
2023-01-15T05:11:17.490Z,98945.20
2023-01-15T05:14:44.449Z,98950.23
2023-01-15T05:18:15.007Z,98949.69
2023-01-15T05:21:44.552Z,98944.96
2023-01-15T05:25:12.384Z,98946.84
2023-01-15T05:28:39.563Z,98947.15
2023-01-15T05:32:09.496Z,98949.90
2023-01-15T05:35:36.693Z,98950.92
2023-01-15T05:39:03.727Z,98949.51
2023-01-15T05:42:30.642Z,98948.98
2023-01-15T05:45:57.873Z,98947.40
2023-01-15T05:49:28.399Z,98945.99
2023-01-15T05:52:55.396Z,98943.04
2023-01-15T05:56:23.020Z,98938.52
2023-01-15T05:59:50.536Z,98932.43
2023-01-15T06:03:17.521Z,98934.69
2023-01-15T06:06:45.076Z,98928.25
2023-01-15T06:10:13.135Z,98928.42
2023-01-15T06:13:40.468Z,98923.57
2023-01-15T06:17:07.391Z,98922.35
2023-01-15T06:20:36.160Z,98918.54
2023-01-15T06:24:03.755Z,98918.05
2023-01-15T06:27:31.078Z,98922.04
2023-01-15T06:30:58.342Z,98914.09
2023-01-15T06:34:25.436Z,98916.17
2023-01-15T06:37:54.102Z,98917.40
2023-01-15T06:41:41.169Z,98924.16
2023-01-15T06:45:28.270Z,98920.37
2023-01-15T06:48:56.308Z,98920.55
2023-01-15T06:52:23.903Z,98911.02
2023-01-15T06:55:51.048Z,98909.46
2023-01-15T06:59:18.204Z,98909.13
2023-01-15T07:02:45.221Z,98911.58
2023-01-15T07:06:14.575Z,98909.67
2023-01-15T07:09:41.472Z,98909.67
2023-01-15T07:13:10.490Z,98914.02
2023-01-15T07:16:38.648Z,98913.00
2023-01-15T07:20:07.255Z,98909.70
2023-01-15T07:23:34.127Z,98907.96
2023-01-15T07:27:01.058Z,98902.79
2023-01-15T07:30:28.006Z,98902.08
2023-01-15T07:33:56.842Z,98904.17
2023-01-15T07:37:23.796Z,98904.88
2023-01-15T07:41:10.916Z,98904.86
2023-01-15T07:44:55.879Z,98898.45
2023-01-15T07:48:40.560Z,98902.13
2023-01-15T07:52:07.891Z,98899.00
2023-01-15T07:55:36.411Z,98906.65
2023-01-15T07:59:03.345Z,98903.54
2023-01-15T08:02:30.649Z,98903.36
2023-01-15T08:05:58.018Z,98904.23
2023-01-15T08:09:25.980Z,98903.38
2023-01-15T08:13:11.429Z,98902.70
2023-01-15T08:16:39.595Z,98898.34
2023-01-15T08:20:09.085Z,98895.76
2023-01-15T08:23:36.056Z,98896.45
2023-01-15T08:27:02.961Z,98893.67
2023-01-15T08:30:30.090Z,98898.02
2023-01-15T08:33:57.212Z,98892.83
2023-01-15T08:37:25.445Z,98890.23
2023-01-15T08:41:03.715Z,98891.80
2023-01-15T08:44:30.745Z,98887.45
2023-01-15T08:47:58.999Z,98878.42
2023-01-15T08:51:26.012Z,98880.16
2023-01-15T08:54:52.921Z,98884.52
2023-01-15T08:58:20.300Z,98885.20
2023-01-15T09:01:47.774Z,98893.04
2023-01-15T09:05:14.848Z,98895.47
2023-01-15T09:08:42.169Z,98902.95
2023-01-15T09:12:10.463Z,98907.98
2023-01-15T09:15:38.361Z,98917.89
2023-01-15T09:19:05.902Z,98926.41
2023-01-15T09:22:32.948Z,98938.91
2023-01-15T09:26:02.128Z,98979.73
2023-01-15T09:29:29.093Z,98986.46
2023-01-15T09:32:56.229Z,98998.73
2023-01-15T09:36:27.836Z,99010.09
2023-01-15T09:39:54.793Z,99010.84
2023-01-15T09:43:50.083Z,99023.77
2023-01-15T09:47:22.511Z,99023.67
2023-01-15T09:51:03.937Z,99029.81
2023-01-15T09:54:46.645Z,99040.48
2023-01-15T09:58:15.914Z,99053.05
2023-01-15T10:01:43.485Z,99059.18
2023-01-15T10:05:19.000Z,99072.59
2023-01-15T10:08:50.446Z,99072.49
2023-01-15T10:12:38.895Z,99063.03
2023-01-15T10:16:07.558Z,99071.75
2023-01-15T10:19:44.369Z,99073.22
2023-01-15T10:23:33.473Z,99075.91
2023-01-15T10:27:02.453Z,99072.73
2023-01-15T10:30:39.791Z,99067.81
2023-01-15T10:34:25.914Z,99067.88
2023-01-15T10:38:00.018Z,99071.11
2023-01-15T10:41:40.991Z,99074.71
2023-01-15T10:45:16.430Z,99081.75
2023-01-15T10:48:47.088Z,99080.83
2023-01-15T10:52:27.745Z,99088.88
2023-01-15T10:55:57.303Z,99088.31
2023-01-15T10:59:32.633Z,99089.50
2023-01-15T11:03:04.948Z,99089.50
2023-01-15T11:06:35.125Z,99090.91
2023-01-15T11:10:06.678Z,99085.39
2023-01-15T11:13:51.323Z,99089.58
2023-01-15T11:17:36.150Z,99089.80
2023-01-15T11:21:03.801Z,99089.17
2023-01-15T11:24:30.810Z,99091.33
2023-01-15T11:27:58.745Z,99100.05
2023-01-15T11:31:36.568Z,99104.55
2023-01-15T11:35:15.359Z,99102.83
2023-01-15T11:38:49.091Z,99113.94
2023-01-15T11:42:44.868Z,99124.71
2023-01-15T11:46:44.592Z,99112.11
2023-01-15T11:50:37.845Z,99102.44
2023-01-15T11:54:09.399Z,99111.97
2023-01-15T11:57:40.170Z,99128.59
2023-01-15T12:01:08.193Z,99134.83
2023-01-15T12:04:40.182Z,99131.88
2023-01-15T12:08:26.783Z,99137.78
2023-01-15T12:12:05.325Z,99140.40
2023-01-15T12:15:43.647Z,99149.77
2023-01-15T12:19:19.572Z,99157.91
2023-01-15T12:23:00.716Z,99157.21
2023-01-15T12:26:31.872Z,99155.14
2023-01-15T12:30:04.520Z,99164.84
2023-01-15T12:33:43.966Z,99164.77
2023-01-15T12:37:21.161Z,99157.63
2023-01-15T12:40:53.513Z,99163.26
2023-01-15T12:44:46.298Z,99165.43
2023-01-15T12:48:24.179Z,99146.98
2023-01-15T12:51:59.116Z,99140.33
2023-01-15T12:55:29.358Z,99140.09
2023-01-15T12:59:03.309Z,99142.48
2023-01-15T13:02:42.315Z,99152.30
2023-01-15T13:06:11.080Z,99151.77
2023-01-15T13:09:45.364Z,99151.42
2023-01-15T13:13:18.863Z,99143.94
2023-01-15T13:16:54.276Z,99152.20
2023-01-15T13:20:42.930Z,99158.60
2023-01-15T13:24:32.354Z,99162.23
2023-01-15T13:28:09.265Z,99165.30
2023-01-15T13:31:53.605Z,99176.20
2023-01-15T13:35:30.926Z,99172.00
2023-01-15T13:39:02.192Z,99170.40
2023-01-15T13:42:37.841Z,99174.55
2023-01-15T13:46:09.079Z,99182.81
2023-01-15T13:49:40.480Z,99188.83
2023-01-15T13:53:16.019Z,99189.30
2023-01-15T13:56:44.801Z,99179.57
2023-01-15T14:00:30.503Z,99179.16
2023-01-15T14:04:04.231Z,99187.05
2023-01-15T14:07:39.561Z,99171.10
2023-01-15T14:11:07.855Z,99158.25
2023-01-15T14:14:55.869Z,99167.54
2023-01-15T14:19:02.415Z,99174.08
2023-01-15T14:22:49.273Z,99184.77
2023-01-15T14:26:24.963Z,99195.10
2023-01-15T14:30:15.674Z,99199.54
2023-01-15T14:33:56.446Z,99210.41
2023-01-15T14:37:31.561Z,99207.05
2023-01-15T14:41:02.769Z,99203.39
2023-01-15T14:44:34.182Z,99200.06
2023-01-15T14:48:04.475Z,99178.39
2023-01-15T14:51:37.400Z,99177.30
2023-01-15T14:55:11.747Z,99186.39
2023-01-15T14:58:48.722Z,99183.05
2023-01-15T15:02:25.376Z,99177.98
2023-01-15T15:05:55.451Z,99186.55
2023-01-15T15:09:32.265Z,99181.14
2023-01-15T15:13:08.903Z,99181.25
2023-01-15T15:16:44.519Z,99170.30
2023-01-15T15:20:26.465Z,99187.54
2023-01-15T15:24:01.068Z,99202.52
2023-01-15T15:27:29.565Z,99209.22
2023-01-15T15:31:01.561Z,99204.01
2023-01-15T15:34:32.893Z,99194.65
2023-01-15T15:38:05.169Z,99197.55
2023-01-15T15:41:54.991Z,99203.59
2023-01-15T15:45:42.799Z,99220.90
2023-01-15T15:49:12.833Z,99233.70
2023-01-15T15:52:47.415Z,99234.05
2023-01-15T15:56:16.989Z,99226.45
2023-01-15T15:59:51.262Z,99219.50
2023-01-15T16:03:25.581Z,99214.77
2023-01-15T16:06:54.533Z,99223.04
2023-01-15T16:10:26.798Z,99219.73
2023-01-15T16:13:59.702Z,99217.31
2023-01-15T16:17:28.969Z,99216.64
2023-01-15T16:20:57.688Z,99226.83
2023-01-15T16:24:34.923Z,99235.27
2023-01-15T16:28:03.489Z,99241.30
2023-01-15T16:31:37.076Z,99256.09
2023-01-15T16:35:17.064Z,99283.49
2023-01-15T16:38:53.019Z,99290.39
2023-01-15T16:42:34.228Z,99291.77
2023-01-15T16:46:07.491Z,99296.79
2023-01-15T16:49:37.140Z,99305.08
2023-01-15T16:53:07.817Z,99307.49
2023-01-15T16:56:57.712Z,99307.85
2023-01-15T17:00:32.849Z,99309.38
2023-01-15T17:04:00.495Z,99321.05
2023-01-15T17:07:33.811Z,99334.84
2023-01-15T17:11:03.172Z,99341.19
2023-01-15T17:14:30.869Z,99349.64
2023-01-15T17:17:58.629Z,99348.57
2023-01-15T17:21:29.299Z,99369.80
2023-01-15T17:24:59.158Z,99362.73
2023-01-15T17:28:26.394Z,99353.73
2023-01-15T17:31:53.848Z,99348.00
2023-01-15T17:35:31.108Z,99353.86
2023-01-15T17:38:59.081Z,99359.35
2023-01-15T17:42:26.415Z,99366.55
2023-01-15T17:45:53.871Z,99373.38
2023-01-15T17:49:21.279Z,99375.75
2023-01-15T17:52:50.025Z,99367.59
2023-01-15T17:56:35.865Z,99374.16
2023-01-15T18:00:21.140Z,99371.94
2023-01-15T18:04:09.154Z,99359.14
2023-01-15T18:07:41.859Z,99357.35
2023-01-15T18:11:09.598Z,99361.59
2023-01-15T18:14:37.024Z,99372.38
2023-01-15T18:18:05.926Z,99373.34
2023-01-15T18:21:33.568Z,99378.05
2023-01-15T18:25:00.624Z,99377.11
2023-01-15T18:28:27.943Z,99370.98
2023-01-15T18:31:55.215Z,99372.27
2023-01-15T18:35:24.000Z,99372.03
2023-01-15T18:38:51.400Z,99359.91
2023-01-15T18:42:36.443Z,99376.92
2023-01-15T18:46:24.208Z,99382.52
2023-01-15T18:49:53.877Z,99385.63
2023-01-15T18:53:21.100Z,99389.42
2023-01-15T18:56:48.356Z,99392.85
2023-01-15T19:00:18.006Z,99396.56
2023-01-15T19:03:45.168Z,99391.00
2023-01-15T19:07:12.653Z,99398.55
2023-01-15T19:10:40.063Z,99391.61
2023-01-15T19:14:27.082Z,99395.80
2023-01-15T19:18:11.895Z,99398.94
2023-01-15T19:21:38.996Z,99396.17
2023-01-15T19:25:11.478Z,99394.67
2023-01-15T19:28:38.827Z,99390.63
2023-01-15T19:32:06.620Z,99392.75
2023-01-15T19:35:35.398Z,99391.77
2023-01-15T19:39:03.743Z,99397.91
2023-01-15T19:42:48.953Z,99398.93
2023-01-15T19:46:33.717Z,99403.42
2023-01-15T19:50:20.581Z,99405.39
2023-01-15T19:53:48.496Z,99407.36
2023-01-15T19:57:21.423Z,99400.07
2023-01-15T20:00:50.296Z,99399.00
2023-01-15T20:04:18.898Z,99390.14
2023-01-15T20:07:47.410Z,99386.85
2023-01-15T20:11:15.251Z,99391.69
2023-01-15T20:14:42.831Z,99391.17
2023-01-15T20:18:10.721Z,99393.73
2023-01-15T20:21:38.260Z,99388.19
2023-01-15T20:25:06.264Z,99384.97
2023-01-15T20:28:36.037Z,99381.25
2023-01-15T20:32:04.812Z,99383.57
2023-01-15T20:35:34.111Z,99381.95
2023-01-15T20:39:02.886Z,99389.13
2023-01-15T20:42:49.056Z,99394.73
2023-01-15T20:46:18.564Z,99397.34
2023-01-15T20:49:48.197Z,99389.36
2023-01-15T20:53:15.402Z,99391.69
2023-01-15T20:56:45.383Z,99398.27
2023-01-15T21:00:15.200Z,99398.34
2023-01-15T21:03:42.129Z,99396.69
2023-01-15T21:07:10.738Z,99401.05
2023-01-15T21:10:56.487Z,99399.02
2023-01-15T21:14:25.835Z,99407.16
2023-01-15T21:17:54.013Z,99405.08
2023-01-15T21:21:22.925Z,99403.02
2023-01-15T21:24:51.679Z,99405.88
2023-01-15T21:28:19.606Z,99403.63
2023-01-15T21:31:47.740Z,99405.14
2023-01-15T21:35:15.458Z,99405.95
2023-01-15T21:38:43.276Z,99408.54
2023-01-15T21:42:32.341Z,99411.25
2023-01-15T21:46:06.258Z,99410.79
2023-01-15T21:49:34.245Z,99410.91
2023-01-15T21:53:02.465Z,99412.23
2023-01-15T21:56:29.547Z,99415.48
2023-01-15T21:59:59.709Z,99417.83
2023-01-15T22:03:27.173Z,99413.98
2023-01-15T22:06:54.939Z,99411.66
2023-01-15T22:10:21.963Z,99413.14
2023-01-15T22:13:53.062Z,99410.19
2023-01-15T22:17:20.031Z,99411.73
2023-01-15T22:20:56.888Z,99411.36
2023-01-15T22:24:26.870Z,99408.90
2023-01-15T22:27:54.146Z,99407.33
2023-01-15T22:31:21.277Z,99407.48
2023-01-15T22:34:49.692Z,99403.45
2023-01-15T22:38:16.613Z,99401.48
2023-01-15T22:42:01.331Z,99393.27
2023-01-15T22:45:28.550Z,99392.54
2023-01-15T22:48:55.675Z,99392.05
2023-01-15T22:52:25.226Z,99388.84
2023-01-15T22:56:01.578Z,99389.73
2023-01-15T22:59:28.599Z,99388.39
2023-01-15T23:02:55.701Z,99386.12
2023-01-15T23:06:24.791Z,99388.83
2023-01-15T23:09:51.724Z,99387.45
2023-01-15T23:13:18.638Z,99385.06
2023-01-15T23:16:45.856Z,99381.09
2023-01-15T23:20:15.037Z,99380.41
2023-01-15T23:23:42.293Z,99380.98
2023-01-15T23:27:09.445Z,99379.61
2023-01-15T23:30:36.086Z,99380.50
2023-01-15T23:34:03.152Z,99376.89
2023-01-15T23:37:30.295Z,99375.70
2023-01-15T23:40:57.602Z,99371.05
2023-01-15T23:44:42.353Z,99371.10
2023-01-15T23:48:09.616Z,99362.83
2023-01-15T23:51:37.661Z,99367.75
2023-01-15T23:55:04.803Z,99363.53
2023-01-15T23:58:32.511Z,99369.37
